Time;durP1;ratioP1;P1;durP2;ratioP2;P2;SDS_P1;SDS_P2;PMS_P1;PMS_P2;Temp;Humidity;BMP_temperature;BMP_pressure;BME280_temperature;BME280_humidity;BME280_pressure;Samples;Min_cycle;Max_cycle;Signal;HPM_P1;HPM_P2
2022/03/13 00:00:10;;;;;;;7.75;4.32;;;;;;;6.93;29.93;96597.91;5035722;28;20049;-80
2022/03/13 00:02:38;;;;;;;6.57;5.10;;;;;;;6.98;29.70;96593.88;5035013;28;20064;-80
2022/03/13 00:05:10;;;;;;;7.63;5.30;;;;;;;7.01;29.24;96598.72;5035196;28;20077;-80
2022/03/13 00:07:39;;;;;;;7.77;5.53;;;;;;;7.05;29.93;96593.25;5034541;28;20054;-80
2022/03/13 00:10:12;;;;;;;8.73;5.22;;;;;;;7.09;29.21;96597.13;5034707;28;20045;-80
2022/03/13 00:12:39;;;;;;;7.53;5.30;;;;;;;7.07;29.40;96591.31;5034173;28;20499;-80
2022/03/13 00:15:12;;;;;;;7.40;5.32;;;;;;;7.07;29.15;96601.69;5034459;28;20049;-80
2022/03/13 00:17:39;;;;;;;8.30;5.68;;;;;;;7.08;29.02;96598.09;5033615;28;20056;-80
2022/03/13 00:20:10;;;;;;;6.32;4.72;;;;;;;7.12;28.45;96596.81;5034392;28;20451;-80
2022/03/13 00:22:38;;;;;;;5.18;4.13;;;;;;;7.12;28.51;96596.81;5034531;28;20054;-80
2022/03/13 00:25:09;;;;;;;6.25;4.78;;;;;;;7.08;27.32;96598.09;5034522;28;20049;-80
2022/03/13 00:27:37;;;;;;;6.13;4.90;;;;;;;7.05;28.48;96603.63;5033568;28;20063;-80
2022/03/13 00:30:06;;;;;;;5.97;4.50;;;;;;;7.06;28.62;96600.84;5034369;28;20487;-80
2022/03/13 00:32:34;;;;;;;7.28;5.28;;;;;;;7.09;28.26;96594.56;5034256;28;20053;-80
2022/03/13 00:35:02;;;;;;;8.38;5.30;;;;;;;7.12;27.92;96589.84;5038190;28;20045;-80
2022/03/13 00:37:31;;;;;;;17.05;7.93;;;;;;;7.11;27.62;96597.78;5042647;28;20046;-80
2022/03/13 00:40:00;;;;;;;10.48;5.68;;;;;;;7.05;27.61;96595.84;5043557;28;20060;-80
2022/03/13 00:42:28;;;;;;;8.68;5.13;;;;;;;7.06;27.74;96587.88;5037510;28;20053;-80
2022/03/13 00:44:55;;;;;;;7.20;4.63;;;;;;;7.11;27.29;96590.00;5033854;28;20503;-80
2022/03/13 00:47:23;;;;;;;5.85;4.30;;;;;;;7.15;27.19;96586.09;5033662;28;20052;-80
2022/03/13 00:49:51;;;;;;;6.30;4.63;;;;;;;7.12;27.45;96589.03;5033925;28;20049;-80
2022/03/13 00:52:18;;;;;;;6.88;4.30;;;;;;;7.12;27.11;96591.63;5037329;28;20064;-80
2022/03/13 00:54:47;;;;;;;8.55;5.00;;;;;;;7.13;27.09;96580.28;5036103;28;20050;-80
2022/03/13 00:57:17;;;;;;;9.05;4.15;;;;;;;7.11;27.00;96583.03;5035550;28;20419;-80
2022/03/13 00:59:45;;;;;;;6.65;4.32;;;;;;;7.09;26.98;96589.34;5035089;28;20041;-80
2022/03/13 01:02:13;;;;;;;4.90;4.22;;;;;;;7.06;26.57;96584.47;5034488;28;20063;-80
2022/03/13 01:04:42;;;;;;;6.00;4.10;;;;;;;7.05;26.87;96583.66;5034243;28;20046;-80
2022/03/13 01:07:09;;;;;;;6.22;4.10;;;;;;;7.02;26.56;96568.44;5033558;28;20045;-80
2022/03/13 01:09:37;;;;;;;8.48;5.05;;;;;;;6.94;26.70;96577.00;5034259;28;20419;-80
2022/03/13 01:12:07;;;;;;;7.20;4.30;;;;;;;6.90;26.72;96582.66;5033715;28;20049;-80
2022/03/13 01:14:35;;;;;;;5.82;4.05;;;;;;;6.84;26.56;96576.31;5033307;28;20216;-80
2022/03/13 01:17:05;;;;;;;7.60;4.93;;;;;;;6.80;26.33;96570.66;5034641;28;20495;-80
2022/03/13 01:19:33;;;;;;;5.32;3.97;;;;;;;6.74;26.63;96579.06;5034039;28;20057;-79
2022/03/13 01:22:01;;;;;;;7.93;4.30;;;;;;;6.72;26.89;96572.44;5036667;28;20514;-80
2022/03/13 01:24:31;;;;;;;9.45;4.30;;;;;;;6.69;26.61;96564.94;5051802;28;20054;-79
2022/03/13 01:27:02;;;;;;;10.65;4.50;;;;;;;6.63;26.63;96568.19;5050230;28;20055;-80
2022/03/13 01:29:32;;;;;;;4.78;4.03;;;;;;;6.54;26.44;96569.94;5036897;28;20049;-80
2022/03/13 01:32:00;;;;;;;6.32;4.32;;;;;;;6.48;26.46;96566.19;5032022;28;20052;-80
2022/03/13 01:34:41;;;;;;;7.07;4.22;;;;;;;6.42;26.12;96566.81;5033576;28;20450;-79
2022/03/13 01:37:14;;;;;;;8.13;4.95;;;;;;;6.35;26.42;96563.22;5032731;28;20400;-80
2022/03/13 01:39:42;;;;;;;;;;;;;;;6.33;26.17;96567.75;5032000;28;20049;-79
2022/03/13 01:42:09;;;;;;;5.85;3.85;;;;;;;6.27;26.60;96563.19;5039485;28;19931;-80
2022/03/13 01:44:38;;;;;;;6.97;4.72;;;;;;;6.21;26.13;96558.63;5039820;28;20055;-80
2022/03/13 01:47:06;;;;;;;6.82;4.55;;;;;;;6.14;26.24;96558.44;5033732;28;20510;-80
2022/03/13 01:49:34;;;;;;;6.30;4.90;;;;;;;6.08;26.49;96559.88;5032459;28;20056;-80
2022/03/13 01:52:03;;;;;;;5.60;3.92;;;;;;;6.03;26.61;96556.91;5034266;28;20056;-80
2022/03/13 01:54:31;;;;;;;6.47;4.50;;;;;;;6.00;26.49;96552.06;5040263;28;20049;-80
2022/03/13 01:57:00;;;;;;;6.38;4.28;;;;;;;5.95;26.35;96549.13;5036761;28;20068;-79
2022/03/13 01:59:30;;;;;;;5.45;4.05;;;;;;;5.91;26.67;96547.78;5033658;28;20046;-79
2022/03/13 02:01:59;;;;;;;5.63;4.10;;;;;;;5.88;26.61;96553.25;5033776;28;20124;-80
2022/03/13 02:04:30;;;;;;;5.55;3.95;;;;;;;5.85;26.63;96548.38;5032995;28;20060;-80
2022/03/13 02:06:58;;;;;;;6.30;4.00;;;;;;;5.86;26.42;96550.84;5033496;28;20443;-80
2022/03/13 02:09:27;;;;;;;6.30;4.15;;;;;;;5.90;26.51;96552.16;5036774;28;20056;-80
2022/03/13 02:11:55;;;;;;;7.68;5.00;;;;;;;5.88;26.39;96553.25;5044417;28;20058;-80
2022/03/13 02:14:24;;;;;;;6.13;4.22;;;;;;;5.84;26.80;96557.94;5042720;28;20045;-79
2022/03/13 02:16:53;;;;;;;7.43;4.15;;;;;;;5.82;26.61;96549.50;5032629;28;20050;-80
2022/03/13 02:19:22;;;;;;;7.00;4.45;;;;;;;5.81;27.23;96555.63;5037527;28;20049;-80
2022/03/13 02:21:52;;;;;;;7.70;4.72;;;;;;;5.82;27.57;96559.88;5047289;28;20478;-80
2022/03/13 02:24:24;;;;;;;9.40;4.10;;;;;;;5.83;27.07;96558.88;5038074;28;20057;-80
2022/03/13 02:26:56;;;;;;;;;;;;;;;5.86;26.97;96560.34;5034587;28;20081;-80
2022/03/13 02:29:24;;;;;;;6.80;4.18;;;;;;;5.83;27.40;96548.53;5033713;28;20362;-80
2022/03/13 02:31:51;;;;;;;6.00;4.25;;;;;;;5.83;27.11;96545.13;5033829;28;20049;-80
2022/03/13 02:34:20;;;;;;;6.78;4.60;;;;;;;5.81;26.81;96547.06;5033831;28;20054;-80
2022/03/13 02:37:00;;;;;;;9.38;4.38;;;;;;;5.77;26.69;96552.56;5032681;28;20438;-80
2022/03/13 02:39:35;;;;;;;8.82;5.57;;;;;;;5.76;27.16;96545.75;5036539;28;20048;-80
2022/03/13 02:42:08;;;;;;;6.55;4.57;;;;;;;5.75;27.20;96545.88;5035642;28;20049;-80
2022/03/13 02:44:36;;;;;;;;;;;;;;;5.75;27.09;96544.13;5045283;28;20049;-79
2022/03/13 02:47:05;;;;;;;5.65;3.85;;;;;;;5.72;27.38;96549.59;5037426;28;20405;-80
2022/03/13 02:49:34;;;;;;;12.63;5.07;;;;;;;5.72;27.38;96544.41;5034778;28;20054;-80
2022/03/13 02:52:05;;;;;;;6.78;4.57;;;;;;;5.69;27.09;96552.50;5040080;28;20053;-80
2022/03/13 02:54:34;;;;;;;8.18;4.25;;;;;;;5.58;27.32;96547.59;5043255;28;20061;-80
2022/03/13 02:57:03;;;;;;;7.35;3.85;;;;;;;5.49;27.09;96541.53;5042127;28;20060;-80
2022/03/13 02:59:31;;;;;;;5.40;3.90;;;;;;;5.39;27.32;96542.59;5036150;28;20425;-80
2022/03/13 03:02:01;;;;;;;9.48;4.10;;;;;;;5.30;27.58;96533.97;5037044;28;20053;-80
2022/03/13 03:04:28;;;;;;;6.28;4.30;;;;;;;5.24;27.61;96535.34;5037256;28;20076;-80
2022/03/13 03:07:00;;;;;;;6.38;4.38;;;;;;;5.20;27.73;96531.44;5036416;28;20049;-80
2022/03/13 03:09:30;;;;;;;6.63;4.43;;;;;;;5.14;27.59;96522.53;5037246;28;20049;-80
2022/03/13 03:12:01;;;;;;;4.60;3.58;;;;;;;5.10;27.90;96528.16;5037357;28;20053;-80
2022/03/13 03:14:33;;;;;;;6.97;4.22;;;;;;;5.10;27.65;96533.31;5061478;22;20030;-81
2022/03/13 03:17:04;;;;;;;8.02;4.30;;;;;;;5.07;27.94;96526.69;5058976;28;20061;-83
2022/03/13 03:19:34;;;;;;;7.00;4.00;;;;;;;5.03;27.84;96532.28;5054869;28;20036;-83
2022/03/13 03:22:02;;;;;;;5.30;3.97;;;;;;;4.95;27.56;96528.66;5057374;28;20041;-81
2022/03/13 03:24:31;;;;;;;5.10;3.90;;;;;;;4.89;27.79;96531.84;5060841;28;20025;-82
2022/03/13 03:27:01;;;;;;;6.45;4.32;;;;;;;4.84;27.71;96531.47;5054702;28;20049;-83
2022/03/13 03:29:30;;;;;;;5.95;3.92;;;;;;;4.80;28.04;96526.75;5051989;28;20053;-82
2022/03/13 03:31:59;;;;;;;8.20;4.43;;;;;;;4.70;27.92;96529.38;5054727;28;20053;-83
2022/03/13 03:34:29;;;;;;;6.53;4.75;;;;;;;4.60;28.07;96531.25;5055581;28;20069;-83
2022/03/13 03:37:01;;;;;;;8.45;4.50;;;;;;;4.53;28.59;96531.00;5052862;28;20076;-83
2022/03/13 03:39:33;;;;;;;7.10;4.50;;;;;;;4.47;28.83;96527.22;5051519;28;20053;-83
2022/03/13 03:42:07;;;;;;;5.05;3.90;;;;;;;4.44;28.92;96532.69;5052057;28;20083;-83
2022/03/13 03:44:36;;;;;;;5.60;4.40;;;;;;;4.45;28.64;96526.56;5056965;28;20459;-83
2022/03/13 03:47:06;;;;;;;5.72;4.40;;;;;;;4.45;28.85;96534.31;5057615;28;20109;-83
2022/03/13 03:49:35;;;;;;;5.88;4.40;;;;;;;4.47;28.83;96537.56;5054017;28;20113;-83
2022/03/13 03:52:04;;;;;;;6.57;4.40;;;;;;;4.45;29.21;96530.91;5052919;28;20061;-83
2022/03/13 03:54:33;;;;;;;4.70;3.85;;;;;;;4.45;28.97;96539.47;5051895;28;20054;-83
2022/03/13 03:57:04;;;;;;;6.38;4.18;;;;;;;4.46;28.88;96529.94;5051949;28;20045;-83
2022/03/13 03:59:33;;;;;;;7.63;4.70;;;;;;;4.47;28.90;96527.22;5051471;28;20057;-84
2022/03/13 04:02:01;;;;;;;7.53;5.10;;;;;;;4.46;28.75;96525.63;5051530;28;20045;-83
2022/03/13 04:04:31;;;;;;;6.40;4.38;;;;;;;4.45;28.75;96529.13;5050518;28;20049;-82
2022/03/13 04:07:00;;;;;;;6.70;5.15;;;;;;;4.42;28.99;96542.34;5050362;28;20080;-83
2022/03/13 04:09:29;;;;;;;8.95;5.22;;;;;;;4.41;29.08;96548.47;5050669;28;20068;-83
2022/03/13 04:11:59;;;;;;;7.68;4.82;;;;;;;4.39;28.79;96545.22;5049686;28;20478;-83
2022/03/13 04:14:31;;;;;;;7.97;4.05;;;;;;;4.41;28.96;96551.03;5050361;28;20069;-83
2022/03/13 04:17:03;;;;;;;7.53;4.60;;;;;;;4.39;29.17;96541.81;5050027;28;20439;-82
2022/03/13 04:19:32;;;;;;;7.50;4.05;;;;;;;4.38;29.17;96540.22;5050458;28;20297;-82
2022/03/13 04:22:02;;;;;;;6.70;4.75;;;;;;;4.39;29.22;96542.63;5050255;28;20096;-83
2022/03/13 04:24:31;;;;;;;6.28;4.57;;;;;;;4.38;29.23;96548.75;5050457;28;20569;-83
2022/03/13 04:27:09;;;;;;;5.03;4.00;;;;;;;4.36;29.35;96544.72;5049980;28;20053;-83
2022/03/13 04:29:42;;;;;;;8.93;4.38;;;;;;;4.34;29.30;96547.41;5049745;28;20136;-83
2022/03/13 04:32:19;;;;;;;8.25;4.45;;;;;;;4.38;29.26;96553.13;5050155;28;20045;-83
2022/03/13 04:34:48;;;;;;;6.07;4.18;;;;;;;4.41;29.16;96553.63;5049257;28;20104;-83
2022/03/13 04:37:20;;;;;;;7.38;4.10;;;;;;;4.40;29.24;96557.19;5049704;28;20499;-83
2022/03/13 04:39:51;;;;;;;7.63;4.63;;;;;;;4.41;29.31;96558.78;5049388;28;20079;-83
2022/03/13 04:42:20;;;;;;;6.03;4.50;;;;;;;4.43;29.02;96564.63;5050098;28;20075;-83
2022/03/13 04:44:56;;;;;;;8.88;4.32;;;;;;;4.45;29.21;96567.88;5052756;28;20057;-83
2022/03/13 04:47:31;;;;;;;5.55;3.63;;;;;;;4.53;29.53;96572.34;5053070;28;20053;-84
2022/03/13 04:50:01;;;;;;;6.60;3.80;;;;;;;4.57;29.05;96575.44;5057737;28;20060;-83
2022/03/13 04:52:31;;;;;;;8.90;4.80;;;;;;;4.53;29.20;96573.16;5059274;28;20353;-83
2022/03/13 04:55:02;;;;;;;8.18;4.47;;;;;;;4.50;28.86;96573.44;5059187;28;20040;-83
2022/03/13 04:57:34;;;;;;;13.15;6.70;;;;;;;4.50;28.79;96572.63;5095042;22;20041;-84
2022/03/13 05:00:14;;;;;;;9.07;4.97;;;;;;;4.53;28.59;96573.16;5058532;28;20049;-85
2022/03/13 05:02:44;;;;;;;9.50;7.10;;;;;;;4.54;28.68;96569.59;5058430;28;20041;-84
2022/03/13 05:05:16;;;;;;;7.32;5.88;;;;;;;4.50;28.83;96577.78;5058447;28;20061;-86
2022/03/13 05:07:49;;;;;;;7.68;4.47;;;;;;;4.44;29.00;96579.19;5057915;28;20033;-85
2022/03/13 05:10:23;;;;;;;7.35;4.80;;;;;;;4.36;28.64;96568.75;5058432;28;20037;-84
2022/03/13 05:12:55;;;;;;;8.13;4.90;;;;;;;4.23;28.80;96569.09;5058265;28;20040;-87
2022/03/13 05:15:28;;;;;;;6.63;3.85;;;;;;;4.16;29.51;96580.94;5058074;28;20044;-86
2022/03/13 05:18:00;;;;;;;6.93;4.70;;;;;;;4.12;29.38;96577.00;5057744;28;20036;-85
2022/03/13 05:20:30;;;;;;;6.13;4.28;;;;;;;4.09;29.11;96572.16;5058018;28;20037;-85
2022/03/13 05:23:02;;;;;;;6.35;4.05;;;;;;;4.09;29.35;96567.78;5058151;28;20048;-85
2022/03/13 05:25:32;;;;;;;6.90;4.28;;;;;;;4.08;29.21;96568.72;5057905;28;20053;-87
2022/03/13 05:28:01;;;;;;;10.57;5.97;;;;;;;4.06;29.08;96573.22;5057620;28;20105;-85
2022/03/13 05:30:31;;;;;;;5.57;4.10;;;;;;;4.05;29.36;96584.50;5058076;28;20029;-87
2022/03/13 05:33:01;;;;;;;7.53;4.88;;;;;;;4.04;29.28;96592.38;5134150;22;20037;-83
2022/03/13 06:32:37;;;;;;;5.95;4.00;;;;;;;3.51;30.85;96629.84;5056706;28;20068;-86
2022/03/13 06:35:06;;;;;;;7.72;4.97;;;;;;;3.54;30.22;96632.13;5056642;28;20054;-85
2022/03/13 06:37:39;;;;;;;7.15;4.78;;;;;;;3.55;30.46;96638.94;5061003;28;20029;-86
2022/03/13 06:40:23;;;;;;;6.88;4.68;;;;;;;3.57;30.10;96636.22;5061573;28;20040;-87
2022/03/13 06:42:58;;;;;;;8.25;5.32;;;;;;;3.58;30.22;96628.31;5051626;28;20049;-86
2022/03/13 06:45:26;;;;;;;7.50;4.88;;;;;;;3.63;30.36;96636.50;5051405;23;20056;-82
2022/03/13 06:47:56;;;;;;;6.72;4.85;;;;;;;3.68;30.23;96631.72;5040541;28;20038;-85
2022/03/13 06:50:24;;;;;;;8.45;4.90;;;;;;;3.70;30.05;96627.25;5040586;28;20106;-86
2022/03/13 06:52:55;;;;;;;7.53;4.82;;;;;;;3.69;30.37;96632.53;5041600;23;20054;-85
2022/03/13 06:55:25;;;;;;;8.95;5.10;;;;;;;3.72;30.36;96640.00;5036394;28;20095;-85
2022/03/13 06:57:53;;;;;;;7.45;4.78;;;;;;;3.78;30.42;96634.28;5029624;28;20062;-85
2022/03/13 07:00:21;;;;;;;9.30;5.43;;;;;;;3.85;29.95;96637.16;5030747;28;20036;-85
2022/03/13 07:02:49;;;;;;;10.00;4.97;;;;;;;3.93;30.22;96642.41;5040014;28;20030;-84
2022/03/13 07:05:20;;;;;;;5.88;4.85;;;;;;;4.03;29.84;96637.22;5038778;28;20069;-83
2022/03/13 07:07:48;;;;;;;5.93;4.43;;;;;;;4.12;29.92;96637.19;5020155;28;20103;-83
2022/03/13 07:10:16;;;;;;;6.85;4.60;;;;;;;4.25;29.83;96638.66;5012648;28;20444;-83
2022/03/13 07:12:44;;;;;;;6.90;4.93;;;;;;;4.40;29.79;96650.16;5035832;28;20049;-86
2022/03/13 07:15:13;;;;;;;8.00;4.68;;;;;;;4.56;29.63;96640.97;5036464;28;20034;-86
2022/03/13 07:17:42;;;;;;;12.27;5.88;;;;;;;4.72;29.27;96638.59;5039536;28;20090;-86
2022/03/13 07:20:11;;;;;;;6.45;4.55;;;;;;;4.85;28.98;96641.63;5039452;28;20034;-85
2022/03/13 07:36:09;;;;;;;6.75;4.55;;;;;;;5.71;28.80;96636.00;5072472;27;1400174;-82
2022/03/13 07:38:39;;;;;;;8.18;5.18;;;;;;;5.87;28.67;96634.47;5131437;28;20055;-83
2022/03/13 07:41:11;;;;;;;6.78;5.68;;;;;;;6.00;28.53;96640.09;5130320;28;20764;-82
2022/03/13 07:46:28;;;;;;;7.07;4.85;;;;;;;6.37;28.61;96637.25;5112469;28;20296;-83
2022/03/13 08:24:07;;;;;;;9.75;5.53;;;;;;;8.64;26.30;96642.94;5235036;23;20054;-82
2022/03/13 08:29:45;;;;;;;7.35;6.13;;;;;;;9.06;25.87;96641.78;4995684;28;20059;-82
2022/03/13 08:34:57;;;;;;;7.47;5.90;;;;;;;9.59;25.68;96639.31;5157594;23;20037;-81
2022/03/13 08:59:16;;;;;;;7.97;6.18;;;;;;;11.76;23.78;96643.34;4981294;28;20043;-81
2022/03/13 09:01:45;;;;;;;9.68;6.45;;;;;;;12.02;23.75;96639.38;4981067;28;20086;-82
2022/03/13 09:06:57;;;;;;;10.57;6.57;;;;;;;12.40;23.36;96639.00;5334012;23;20039;-81
2022/03/13 09:09:33;;;;;;;9.90;7.53;;;;;;;12.64;23.22;96630.72;5001481;28;20041;-81
2022/03/13 10:09:28;;;;;;;13.38;9.85;;;;;;;21.44;18.21;96610.28;4851407;23;20063;-74
2022/03/13 10:12:08;;;;;;;14.38;9.80;;;;;;;22.42;17.22;96607.34;4974569;28;20054;-74
2022/03/13 10:14:39;;;;;;;17.15;12.30;;;;;;;23.57;17.06;96607.50;4974108;28;20530;-76
2022/03/13 10:50:47;;;;;;;15.93;12.55;;;;;;;30.12;11.56;96571.47;5581497;23;20113;-83
2022/03/13 10:53:16;;;;;;;15.18;12.10;;;;;;;28.52;12.64;96562.66;4974865;28;20131;-84
2022/03/13 10:55:45;;;;;;;12.45;11.15;;;;;;;27.35;12.97;96566.16;4991738;28;20039;-84
2022/03/13 10:58:16;;;;;;;12.68;11.32;;;;;;;26.69;13.16;96559.81;4998070;28;20101;-84
2022/03/13 11:00:46;;;;;;;14.38;12.05;;;;;;;26.03;13.82;96550.59;4984421;28;20070;-82
2022/03/13 11:06:04;;;;;;;13.63;10.45;;;;;;;24.95;15.03;96558.53;5117501;23;20059;-70
2022/03/13 11:08:31;;;;;;;14.23;10.18;;;;;;;24.64;15.11;96543.47;4953790;29;20051;-71
2022/03/13 12:21:23;;;;;;;19.33;14.68;;;;;;;21.17;19.63;96465.16;4953815;28;20058;-67
2022/03/13 12:23:52;;;;;;;18.25;13.65;;;;;;;21.11;19.70;96470.66;4955578;29;20431;-67
2022/03/13 12:26:22;;;;;;;19.60;15.20;;;;;;;21.06;19.64;96468.00;4955329;29;20050;-65
2022/03/13 12:28:54;;;;;;;18.48;15.10;;;;;;;20.97;19.94;96470.28;4956307;29;20044;-68
2022/03/13 12:31:21;;;;;;;19.63;14.93;;;;;;;20.83;19.67;96464.56;4955041;29;20055;-66
2022/03/13 12:33:51;;;;;;;18.95;14.77;;;;;;;20.71;19.81;96469.25;4966055;29;20082;-68
2022/03/13 12:36:19;;;;;;;21.75;15.68;;;;;;;20.58;20.13;96465.91;4945530;29;20051;-68
2022/03/13 12:38:50;;;;;;;27.08;15.48;;;;;;;20.38;19.85;96461.16;4937225;29;20056;-67
2022/03/13 12:44:31;;;;;;;24.73;17.38;;;;;;;20.04;19.67;96457.81;5648603;23;20053;-68
2022/03/13 12:46:59;;;;;;;20.42;13.57;;;;;;;19.85;20.09;96452.00;4986000;28;20433;-66
2022/03/13 12:49:28;;;;;;;19.67;12.70;;;;;;;19.64;20.87;96448.25;4995261;28;20057;-69
2022/03/13 12:51:57;;;;;;;15.05;11.07;;;;;;;19.51;22.74;96451.25;4981753;28;20069;-67
2022/03/13 12:55:06;;;;;;;19.23;11.27;;;;;;;19.42;25.05;96447.41;4990606;28;20042;-80
2022/03/13 12:58:11;;;;;;;14.10;11.55;;;;;;;19.33;20.91;96437.22;5042971;23;20421;-78
2022/03/13 13:00:40;;;;;;;14.32;10.23;;;;;;;19.28;22.84;96442.41;4997605;28;20062;-76
2022/03/13 13:03:08;;;;;;;14.75;10.65;;;;;;;19.25;21.79;96434.97;5027822;28;20065;-81
2022/03/13 13:05:36;;;;;;;12.57;9.77;;;;;;;19.22;21.26;96443.41;5020272;28;20083;-76
2022/03/13 13:08:04;;;;;;;14.43;10.55;;;;;;;19.16;22.68;96438.28;5014957;28;20057;-79
2022/03/13 13:10:32;;;;;;;13.00;10.13;;;;;;;19.00;21.07;96437.22;5014301;28;20050;-78
2022/03/13 13:13:02;;;;;;;12.27;9.20;;;;;;;18.82;21.52;96435.59;5023170;28;20045;-76
2022/03/13 13:15:30;;;;;;;11.43;8.90;;;;;;;18.68;23.37;96427.13;5026776;28;20056;-80
2022/03/13 13:17:59;;;;;;;13.32;9.57;;;;;;;18.63;22.45;96427.03;5017093;28;20058;-76
2022/03/13 13:20:28;;;;;;;13.77;9.38;;;;;;;18.62;22.03;96422.78;5020832;28;20061;-77
2022/03/13 13:23:10;;;;;;;12.95;9.18;;;;;;;18.62;21.51;96420.16;5026660;28;20053;-77
2022/03/13 13:25:38;;;;;;;13.82;10.05;;;;;;;18.58;21.11;96429.59;5027698;28;20064;-77
2022/03/13 13:28:10;;;;;;;10.40;9.05;;;;;;;18.48;22.64;96425.72;5016402;28;20045;-76
2022/03/13 13:30:38;;;;;;;13.27;10.40;;;;;;;18.40;22.33;96427.94;5014475;28;20049;-76
2022/03/13 13:33:09;;;;;;;13.77;9.32;;;;;;;18.31;22.63;96424.88;5014364;28;20061;-77
2022/03/13 13:35:38;;;;;;;12.48;9.10;;;;;;;18.30;22.19;96423.25;5014234;28;20053;-76
2022/03/13 13:38:08;;;;;;;11.77;9.25;;;;;;;18.31;21.35;96435.44;5013579;28;20050;-78
2022/03/13 13:40:38;;;;;;;12.63;10.00;;;;;;;18.21;21.23;96425.47;5013966;28;20053;-76
2022/03/13 13:43:09;;;;;;;11.32;9.27;;;;;;;18.06;21.58;96425.97;5014105;28;20050;-77
2022/03/13 13:45:39;;;;;;;13.30;9.77;;;;;;;18.01;22.66;96420.59;5014112;28;20042;-77
2022/03/13 13:48:28;;;;;;;15.13;10.18;;;;;;;17.98;25.48;96413.13;5013376;28;20057;-77
2022/03/13 13:51:22;;;;;;;10.75;8.45;;;;;;;17.99;27.09;96414.72;5013719;28;20072;-77
2022/03/13 13:54:03;;;;;;;16.45;9.57;;;;;;;18.08;24.90;96416.00;5013968;28;20062;-77
2022/03/13 13:56:35;;;;;;;12.25;9.10;;;;;;;18.12;23.57;96411.81;5013127;28;20422;-77
2022/03/13 13:59:20;;;;;;;10.35;7.60;;;;;;;18.11;23.87;96401.53;5013959;28;20057;-77
2022/03/13 14:01:49;;;;;;;11.40;9.05;;;;;;;18.08;22.22;96410.72;5008083;28;20050;-77
2022/03/13 14:04:18;;;;;;;10.80;8.25;;;;;;;18.10;22.47;96407.81;4994251;28;20421;-77
2022/03/13 14:06:47;;;;;;;11.45;9.00;;;;;;;18.11;22.93;96415.50;4993465;28;20046;-77
2022/03/13 14:09:15;;;;;;;14.32;9.75;;;;;;;18.12;22.41;96411.03;4994116;28;20046;-77
2022/03/13 14:11:43;;;;;;;15.10;10.43;;;;;;;18.06;21.84;96412.78;4993952;28;20046;-77
2022/03/13 14:14:11;;;;;;;14.38;9.43;;;;;;;17.98;22.24;96409.72;4993858;28;20057;-77
2022/03/13 14:16:40;;;;;;;11.35;8.57;;;;;;;17.93;22.92;96399.84;4993057;28;20047;-77
2022/03/13 14:19:21;;;;;;;12.15;9.10;;;;;;;17.90;21.99;96406.38;4994030;28;20054;-77
2022/03/13 14:21:49;;;;;;;11.60;9.02;;;;;;;17.91;22.60;96409.84;4993740;28;20074;-77
2022/03/13 14:24:17;;;;;;;10.18;7.97;;;;;;;17.88;24.30;96413.72;4993788;28;20080;-77
2022/03/13 14:26:45;;;;;;;12.18;8.95;;;;;;;17.82;21.92;96416.47;5001773;28;20042;-78
2022/03/13 14:29:12;;;;;;;12.45;8.27;;;;;;;17.73;21.98;96404.66;5013509;28;20413;-78
2022/03/13 14:31:40;;;;;;;10.05;8.20;;;;;;;17.65;22.13;96411.09;5012994;28;20050;-77
2022/03/13 14:34:08;;;;;;;13.13;8.20;;;;;;;17.60;22.43;96414.44;5013476;28;20517;-77
2022/03/13 14:36:40;;;;;;;10.77;8.32;;;;;;;17.59;22.41;96402.28;5012551;28;20061;-77
2022/03/13 14:39:08;;;;;;;;;;;;;;;17.58;21.50;96411.22;5013401;28;20104;-77
2022/03/13 14:41:38;;;;;;;11.95;8.10;;;;;;;17.46;23.60;96413.06;5013084;28;20462;-77
2022/03/13 14:44:06;;;;;;;8.38;6.93;;;;;;;17.38;22.41;96403.69;5014925;28;20050;-77
2022/03/13 14:46:34;;;;;;;12.65;8.43;;;;;;;17.37;22.51;96398.63;5013711;28;20046;-77
2022/03/13 14:49:01;;;;;;;10.00;7.25;;;;;;;17.36;22.16;96410.19;5014940;28;20060;-78
2022/03/13 14:51:29;;;;;;;10.88;7.35;;;;;;;17.30;21.85;96399.53;5015622;28;20050;-77
2022/03/13 14:53:58;;;;;;;12.40;9.32;;;;;;;17.25;23.39;96402.06;5012968;28;20049;-77
2022/03/13 14:56:25;;;;;;;12.15;8.20;;;;;;;17.25;22.90;96396.78;5012147;28;20042;-77
2022/03/13 14:58:53;;;;;;;9.43;7.68;;;;;;;17.26;22.32;96398.38;5013149;28;20055;-77
2022/03/13 15:01:21;;;;;;;11.55;7.95;;;;;;;17.23;22.10;96393.56;5012538;28;20049;-77
2022/03/13 15:03:49;;;;;;;10.02;6.63;;;;;;;17.20;22.31;96398.50;5010843;28;20081;-77
2022/03/13 15:06:17;;;;;;;9.35;7.63;;;;;;;17.17;21.72;96396.31;5012018;28;20569;-77
2022/03/13 15:08:44;;;;;;;8.75;7.03;;;;;;;17.13;22.17;96403.09;5013225;28;20076;-77
2022/03/13 15:11:13;;;;;;;10.40;7.75;;;;;;;17.11;23.46;96405.94;5014196;28;20057;-77
2022/03/13 15:13:41;;;;;;;9.55;6.50;;;;;;;17.11;22.28;96405.13;5019237;28;20053;-77
2022/03/13 15:16:08;;;;;;;10.40;6.82;;;;;;;17.10;22.42;96406.97;5017234;28;20056;-77
2022/03/13 15:18:36;;;;;;;9.63;7.10;;;;;;;17.08;22.95;96401.13;5017751;28;20053;-77
2022/03/13 15:21:04;;;;;;;8.38;7.03;;;;;;;17.05;21.65;96402.38;5016029;28;20057;-76
2022/03/13 15:23:32;;;;;;;9.45;7.40;;;;;;;16.99;22.51;96403.28;5017333;28;20057;-77
2022/03/13 15:25:59;;;;;;;9.15;6.85;;;;;;;16.95;22.03;96407.41;5015356;28;20429;-76
2022/03/13 15:28:29;;;;;;;8.15;6.50;;;;;;;16.89;23.04;96408.31;5015432;28;20057;-77
2022/03/13 15:30:56;;;;;;;9.85;6.47;;;;;;;16.85;22.57;96407.16;4995617;28;20062;-78
2022/03/13 15:33:25;;;;;;;9.38;6.75;;;;;;;16.80;22.07;96402.56;5003518;28;20052;-74
2022/03/13 15:35:53;;;;;;;7.40;5.50;;;;;;;16.74;21.80;96406.06;5023704;28;20077;-79
2022/03/13 15:38:21;;;;;;;7.80;5.90;;;;;;;16.69;21.67;96408.56;5030222;28;20054;-79
2022/03/13 15:40:50;;;;;;;9.05;6.30;;;;;;;16.65;21.26;96408.22;5018483;28;20630;-79
2022/03/13 15:43:19;;;;;;;8.02;6.18;;;;;;;16.61;21.20;96408.88;5016161;28;20100;-79
2022/03/13 15:51:39;;;;;;;10.73;6.43;;;;;;;16.46;22.33;96410.13;5389207;23;20142;-80
2022/03/13 15:54:23;;;;;;;9.60;7.30;;;;;;;16.39;23.18;96405.94;4979615;28;20051;-80
2022/03/13 15:56:51;;;;;;;10.65;7.93;;;;;;;16.33;22.43;96412.09;4978564;28;20061;-80
2022/03/13 15:59:19;;;;;;;9.70;6.85;;;;;;;16.26;22.40;96404.28;4977262;28;20653;-78
2022/03/13 16:01:48;;;;;;;9.93;6.88;;;;;;;16.20;22.38;96415.69;4963240;28;20046;-79
2022/03/13 16:04:16;;;;;;;10.02;6.57;;;;;;;16.12;22.11;96410.75;4978545;28;20049;-79
2022/03/13 16:06:44;;;;;;;8.38;5.80;;;;;;;16.02;22.21;96409.44;4977128;28;20138;-79
2022/03/13 16:09:12;;;;;;;13.07;6.38;;;;;;;15.96;22.57;96405.09;4983653;28;20086;-78
2022/03/13 16:11:39;;;;;;;13.70;7.07;;;;;;;15.90;23.29;96407.78;5054677;23;20055;-74
2022/03/13 16:14:07;;;;;;;7.10;5.97;;;;;;;15.83;23.11;96406.03;4963587;29;20129;-71
2022/03/13 16:16:36;;;;;;;8.77;6.75;;;;;;;15.78;23.55;96402.44;4940663;29;20055;-69
2022/03/13 16:19:06;;;;;;;11.00;6.13;;;;;;;15.72;23.37;96419.09;4952351;28;20146;-72
2022/03/13 16:21:34;;;;;;;8.77;5.93;;;;;;;15.65;23.44;96417.31;4937868;29;20060;-71
2022/03/13 16:30:40;;;;;;;8.15;6.22;;;;;;;15.41;23.29;96423.41;5460048;23;20053;-79
2022/03/13 16:33:12;;;;;;;8.68;5.93;;;;;;;15.32;23.31;96422.06;5001857;28;20082;-79
2022/03/13 16:35:56;;;;;;;7.80;5.90;;;;;;;15.21;23.18;96429.63;5002335;28;20033;-79
2022/03/13 16:38:30;;;;;;;9.45;6.50;;;;;;;15.14;23.67;96422.84;5002158;28;20070;-79
2022/03/13 16:41:01;;;;;;;7.53;5.80;;;;;;;15.05;23.57;96427.56;5001911;28;20052;-79
2022/03/13 16:43:31;;;;;;;6.78;5.57;;;;;;;14.98;23.50;96421.56;5015966;23;20259;-81
2022/03/13 16:45:59;;;;;;;8.45;6.35;;;;;;;14.92;23.47;96425.03;4998374;28;20134;-81
2022/03/13 16:50:56;;;;;;;7.75;5.45;;;;;;;14.80;23.59;96428.34;4955481;28;20675;-78
2022/03/13 16:53:37;;;;;;;7.78;5.43;;;;;;;14.74;23.91;96423.13;4960020;28;20484;-74
2022/03/13 16:56:06;;;;;;;8.57;5.78;;;;;;;14.71;24.15;96426.97;4937471;29;20068;-77
2022/03/13 16:58:43;;;;;;;7.22;5.53;;;;;;;14.68;23.93;96424.78;4960659;28;20083;-82
2022/03/13 17:31:19;;;;;;;11.77;8.57;;;;;;;13.68;25.90;96437.47;4956458;28;20427;-80
2022/03/13 17:33:49;;;;;;;13.02;7.97;;;;;;;13.60;25.74;96438.50;4957797;29;20047;-80
2022/03/13 17:36:19;;;;;;;13.35;9.10;;;;;;;13.52;25.84;96438.72;4959818;28;20051;-79
2022/03/13 17:38:47;;;;;;;10.75;8.02;;;;;;;13.43;25.75;96440.75;4963838;28;20047;-79
2022/03/13 17:41:15;;;;;;;11.10;8.48;;;;;;;13.35;26.73;96436.50;4963471;28;20495;-79